Time;durP1;ratioP1;P1;durP2;ratioP2;P2;SDS_P1;SDS_P2;PMS_P1;PMS_P2;Temp;Humidity;BMP_temperature;BMP_pressure;BME280_temperature;BME280_humidity;BME280_pressure;Samples;Min_cycle;Max_cycle;Signal;HPM_P1;HPM_P2
2021/09/01 00:01:37;;;;;;;14.70;9.65;;;;;;;12.43;100.00;98488.53;5044614;28;20056;-80
2021/09/01 00:04:04;;;;;;;20.17;9.60;;;;;;;12.40;100.00;98491.84;5045869;28;20046;-82
2021/09/01 00:06:31;;;;;;;18.42;10.15;;;;;;;12.34;100.00;98500.38;5043973;28;20042;-83
2021/09/01 00:08:58;;;;;;;21.33;10.25;;;;;;;12.35;100.00;98497.38;5027128;28;20073;-80
2021/09/01 00:11:25;;;;;;;16.52;9.85;;;;;;;12.31;100.00;98498.31;5043891;28;20049;-80
2021/09/01 00:13:51;;;;;;;22.30;11.35;;;;;;;12.17;100.00;98494.81;5044022;28;20111;-80
2021/09/01 00:16:27;;;;;;;26.13;10.73;;;;;;;12.18;100.00;98508.06;5024871;28;20656;-80
2021/09/01 00:19:00;;;;;;;20.40;10.95;;;;;;;12.17;100.00;98500.22;5041363;28;20056;-82
2021/09/01 00:21:27;;;;;;;19.73;11.52;;;;;;;12.13;100.00;98500.03;5040089;28;20128;-80
2021/09/01 00:23:54;;;;;;;16.58;10.10;;;;;;;12.10;100.00;98505.28;5042622;28;20145;-81
2021/09/01 00:26:22;;;;;;;23.67;9.98;;;;;;;12.09;100.00;98509.91;5027398;28;20056;-81
2021/09/01 00:28:49;;;;;;;21.10;10.38;;;;;;;12.03;100.00;98513.00;5042870;28;20041;-81
2021/09/01 00:31:18;;;;;;;17.15;10.18;;;;;;;12.01;100.00;98513.31;5026237;28;20045;-83
2021/09/01 00:33:46;;;;;;;24.50;11.18;;;;;;;12.01;100.00;98524.16;5045298;28;20662;-82
2021/09/01 00:36:13;;;;;;;21.40;10.73;;;;;;;11.94;100.00;98520.25;5026484;28;20045;-82
2021/09/01 00:38:40;;;;;;;19.83;11.05;;;;;;;11.88;100.00;98525.78;5041658;28;20496;-81
2021/09/01 00:41:11;;;;;;;21.23;11.80;;;;;;;11.80;100.00;98523.75;5042170;28;20079;-82
2021/09/01 00:43:38;;;;;;;19.92;10.50;;;;;;;11.84;100.00;98534.81;5041850;28;20049;-82
2021/09/01 00:46:06;;;;;;;19.55;11.20;;;;;;;11.85;100.00;98518.22;5041073;28;20488;-81
2021/09/01 00:48:33;;;;;;;20.30;11.68;;;;;;;11.90;100.00;98528.19;5045799;28;20057;-84
2021/09/01 00:51:00;;;;;;;21.88;12.60;;;;;;;11.87;100.00;98518.72;5046116;28;20117;-81
2021/09/01 00:53:30;;;;;;;19.73;11.40;;;;;;;11.85;100.00;98534.50;5046142;28;20049;-81
2021/09/01 00:55:56;;;;;;;27.00;13.02;;;;;;;11.86;100.00;98521.75;5053406;28;20085;-85
2021/09/01 00:58:23;;;;;;;18.33;11.38;;;;;;;11.82;100.00;98531.59;5054482;28;20089;-81
2021/09/01 01:03:18;;;;;;;24.42;12.70;;;;;;;11.79;100.00;98532.22;5052603;28;20052;-85
2021/09/01 01:05:45;;;;;;;29.10;14.07;;;;;;;11.79;100.00;98526.78;5052542;28;20109;-83
2021/09/01 01:08:12;;;;;;;26.50;13.23;;;;;;;11.77;100.00;98528.97;5067102;28;20043;-84
2021/09/01 01:10:40;;;;;;;26.17;12.70;;;;;;;11.74;100.00;98535.03;5050870;28;20309;-83
2021/09/01 01:13:08;;;;;;;27.73;13.15;;;;;;;11.72;100.00;98529.88;5051316;28;20045;-83
2021/09/01 01:15:39;;;;;;;28.63;14.10;;;;;;;11.78;100.00;98525.16;5048763;28;20049;-83
2021/09/01 01:18:08;;;;;;;24.45;13.15;;;;;;;11.76;100.00;98533.63;5045058;28;20045;-83
2021/09/01 01:20:36;;;;;;;28.85;14.55;;;;;;;11.72;100.00;98518.22;5044442;28;20041;-83
2021/09/01 01:23:05;;;;;;;21.90;13.13;;;;;;;11.73;100.00;98528.78;5043537;28;20045;-81
2021/09/01 01:25:32;;;;;;;27.30;14.00;;;;;;;11.65;100.00;98523.22;5042326;28;20045;-82
2021/09/01 01:27:59;;;;;;;28.23;14.77;;;;;;;11.67;100.00;98529.94;5042152;28;20373;-83
2021/09/01 01:30:26;;;;;;;23.48;13.35;;;;;;;11.75;100.00;98537.44;5057969;28;20045;-81
2021/09/01 01:32:54;;;;;;;26.27;14.02;;;;;;;11.75;100.00;98532.00;5042055;28;20056;-79
2021/09/01 01:35:23;;;;;;;28.67;13.70;;;;;;;11.78;100.00;98527.88;5023698;28;20103;-82
2021/09/01 01:37:50;;;;;;;26.58;14.10;;;;;;;11.82;100.00;98526.16;5039635;28;20069;-81
2021/09/01 01:40:16;;;;;;;26.45;15.13;;;;;;;11.91;100.00;98529.78;5044533;28;20111;-80
2021/09/01 01:42:43;;;;;;;31.73;16.65;;;;;;;11.84;100.00;98529.41;5044493;28;20072;-81
2021/09/01 01:45:11;;;;;;;31.33;15.82;;;;;;;11.81;100.00;98530.81;5045366;28;20064;-82
2021/09/01 01:47:37;;;;;;;26.00;13.60;;;;;;;11.76;100.00;98528.19;5042955;28;20045;-83
2021/09/01 01:50:06;;;;;;;26.33;15.18;;;;;;;11.80;100.00;98541.94;5041536;28;20120;-83
2021/09/01 01:52:33;;;;;;;35.33;18.55;;;;;;;11.76;100.00;98540.94;5024961;28;20057;-82
2021/09/01 01:55:01;;;;;;;39.92;20.27;;;;;;;11.80;100.00;98545.47;5041339;28;20068;-82
2021/09/01 01:57:29;;;;;;;39.85;18.08;;;;;;;11.98;100.00;98537.53;5039263;28;20048;-82
2021/09/01 01:59:56;;;;;;;33.15;17.67;;;;;;;11.97;100.00;98542.19;5040737;28;20046;-81
2021/09/01 02:02:29;;;;;;;31.27;16.90;;;;;;;11.96;100.00;98532.41;5039842;28;20049;-81
2021/09/01 02:04:57;;;;;;;35.92;19.25;;;;;;;11.95;100.00;98530.00;5056496;28;20060;-80
2021/09/01 02:07:24;;;;;;;35.50;18.00;;;;;;;11.89;100.00;98534.72;5055057;28;20052;-81
2021/09/01 02:09:51;;;;;;;34.47;18.00;;;;;;;11.92;100.00;98528.72;5056832;28;20065;-81
2021/09/01 02:12:18;;;;;;;36.78;18.77;;;;;;;12.00;100.00;98543.47;5038659;28;20239;-81
2021/09/01 02:14:45;;;;;;;36.00;18.85;;;;;;;11.88;100.00;98536.63;5038919;28;20045;-82
2021/09/01 02:17:12;;;;;;;39.63;20.02;;;;;;;11.81;100.00;98541.66;5055990;28;20235;-81
2021/09/01 02:19:39;;;;;;;40.20;19.42;;;;;;;11.84;100.00;98549.22;5055119;28;20074;-80
2021/09/01 02:22:06;;;;;;;35.28;19.15;;;;;;;11.93;100.00;98545.75;5039209;28;20183;-82
2021/09/01 02:24:33;;;;;;;38.28;19.25;;;;;;;12.03;100.00;98543.66;5055745;28;20057;-81
2021/09/01 02:27:00;;;;;;;33.10;17.13;;;;;;;12.07;100.00;98536.53;5055106;28;20282;-80
2021/09/01 02:29:26;;;;;;;33.25;17.10;;;;;;;12.02;100.00;98546.69;5055290;28;20052;-83
2021/09/01 02:31:53;;;;;;;34.08;17.08;;;;;;;11.94;100.00;98536.53;5042153;28;20053;-82
2021/09/01 02:34:20;;;;;;;38.15;18.13;;;;;;;11.89;100.00;98545.59;5042559;28;20073;-80
2021/09/01 02:36:46;;;;;;;37.22;18.48;;;;;;;11.87;100.00;98547.78;5042341;28;20436;-81
2021/09/01 02:39:13;;;;;;;36.63;19.55;;;;;;;11.77;100.00;98547.97;5042689;28;20042;-82
2021/09/01 02:41:40;;;;;;;42.92;20.65;;;;;;;11.84;100.00;98553.81;5025909;28;20053;-80
2021/09/01 02:44:07;;;;;;;39.13;19.75;;;;;;;11.83;100.00;98544.88;5058275;28;20049;-80
2021/09/01 02:46:33;;;;;;;39.53;21.35;;;;;;;11.85;100.00;98548.09;5041398;28;20041;-81
2021/09/01 02:49:00;;;;;;;41.70;20.60;;;;;;;12.01;100.00;98550.50;5064329;28;20049;-81
2021/09/01 02:51:27;;;;;;;38.40;20.98;;;;;;;11.85;100.00;98549.97;5047440;28;20054;-81
2021/09/01 02:53:53;;;;;;;42.20;20.27;;;;;;;11.87;100.00;98545.88;5057886;28;20055;-82
2021/09/01 02:56:20;;;;;;;41.00;21.17;;;;;;;11.92;100.00;98544.19;5046217;28;20718;-82
2021/09/01 02:58:46;;;;;;;44.70;22.33;;;;;;;11.87;100.00;98545.09;5064866;28;20069;-84
2021/09/01 03:01:13;;;;;;;39.15;20.42;;;;;;;11.94;100.00;98547.38;5047122;28;20045;-83
2021/09/01 03:03:40;;;;;;;42.67;20.45;;;;;;;11.99;100.00;98539.16;5047135;28;20048;-81
2021/09/01 03:06:06;;;;;;;37.38;20.13;;;;;;;12.00;100.00;98538.06;5064049;28;20045;-84
2021/09/01 03:08:33;;;;;;;39.30;20.35;;;;;;;11.95;100.00;98560.66;5052575;28;20057;-83
2021/09/01 03:11:00;;;;;;;34.47;19.55;;;;;;;11.96;100.00;98535.13;5065269;28;20037;-83
2021/09/01 03:13:28;;;;;;;41.35;21.00;;;;;;;11.88;100.00;98542.06;5042207;28;20053;-80
2021/09/01 03:15:55;;;;;;;35.63;18.70;;;;;;;11.99;100.00;98547.28;5040833;28;20073;-81
2021/09/01 03:18:22;;;;;;;37.03;20.00;;;;;;;11.96;100.00;98540.56;5056088;28;20566;-81
2021/09/01 03:20:48;;;;;;;38.70;20.35;;;;;;;11.95;100.00;98552.50;5040230;28;20049;-81
2021/09/01 03:23:15;;;;;;;36.65;20.92;;;;;;;11.95;100.00;98551.72;5055161;28;20042;-80
2021/09/01 03:25:42;;;;;;;42.20;20.13;;;;;;;11.99;100.00;98541.84;5038226;28;20045;-80
2021/09/01 03:28:08;;;;;;;38.80;20.13;;;;;;;12.04;100.00;98548.00;5054835;28;20052;-82
2021/09/01 03:30:35;;;;;;;40.78;21.02;;;;;;;12.01;100.00;98540.44;5056171;28;20041;-82
2021/09/01 03:33:01;;;;;;;43.33;20.98;;;;;;;12.08;100.00;98538.13;5059917;28;20045;-81
2021/09/01 03:35:28;;;;;;;40.42;21.50;;;;;;;12.11;100.00;98553.81;5047465;28;20054;-80
2021/09/01 03:37:55;;;;;;;43.83;20.92;;;;;;;12.09;100.00;98539.75;5053436;28;20052;-82
2021/09/01 03:40:22;;;;;;;40.45;20.80;;;;;;;12.15;100.00;98543.16;5038054;28;20033;-80
2021/09/01 03:42:49;;;;;;;37.42;20.02;;;;;;;12.29;100.00;98558.34;5052736;28;20114;-80
2021/09/01 03:45:16;;;;;;;39.50;20.25;;;;;;;12.32;100.00;98559.63;5053995;28;20041;-80
2021/09/01 03:47:42;;;;;;;40.25;19.30;;;;;;;12.35;100.00;98559.03;5054975;28;20048;-81
2021/09/01 03:50:12;;;;;;;42.75;20.05;;;;;;;12.33;100.00;98570.22;5055092;28;20049;-82
2021/09/01 03:52:38;;;;;;;41.63;21.58;;;;;;;12.34;100.00;98573.69;5040635;28;20432;-81
2021/09/01 03:55:09;;;;;;;43.70;20.38;;;;;;;12.51;100.00;98568.47;5057226;28;20113;-80
2021/09/01 03:57:37;;;;;;;52.33;22.63;;;;;;;12.47;100.00;98570.16;5058316;28;20042;-82
2021/09/01 04:00:08;;;;;;;42.03;22.70;;;;;;;12.57;100.00;98574.59;5060847;28;20034;-81
2021/09/01 04:02:35;;;;;;;46.42;23.70;;;;;;;12.59;100.00;98573.19;5042283;28;20045;-81
2021/09/01 04:05:02;;;;;;;43.22;23.30;;;;;;;12.63;100.00;98584.22;5039402;28;20054;-82
2021/09/01 04:07:29;;;;;;;46.70;23.40;;;;;;;12.66;100.00;98579.00;5038878;28;20101;-82
2021/09/01 04:09:56;;;;;;;45.15;23.70;;;;;;;12.76;100.00;98580.69;5036425;28;20041;-82
2021/09/01 04:12:23;;;;;;;40.85;22.75;;;;;;;12.88;100.00;98575.50;5040120;28;20041;-82
2021/09/01 04:14:49;;;;;;;37.90;20.63;;;;;;;12.93;100.00;98591.72;5058434;28;20056;-82
2021/09/01 04:17:16;;;;;;;37.88;21.90;;;;;;;13.05;100.00;98587.38;5038246;28;20056;-81
2021/09/01 04:19:42;;;;;;;41.45;22.25;;;;;;;13.10;100.00;98581.03;5038473;28;20046;-82
2021/09/01 04:22:09;;;;;;;38.25;22.15;;;;;;;13.17;100.00;98584.13;5054132;28;20045;-83
2021/09/01 04:24:36;;;;;;;42.88;21.40;;;;;;;13.22;100.00;98581.28;5058199;28;20042;-85
2021/09/01 04:27:04;;;;;;;37.00;20.17;;;;;;;13.21;100.00;98582.41;5059813;28;20046;-81
2021/09/01 04:29:31;;;;;;;42.70;19.58;;;;;;;13.19;100.00;98583.81;5041560;28;20045;-81
2021/09/01 04:31:57;;;;;;;38.70;20.05;;;;;;;13.14;100.00;98584.72;5041296;28;20053;-81
2021/09/01 04:34:24;;;;;;;37.25;20.15;;;;;;;13.12;100.00;98584.22;5042560;28;20626;-82
2021/09/01 04:36:51;;;;;;;33.40;19.92;;;;;;;13.15;100.00;98590.97;5042176;28;20111;-80
2021/09/01 04:39:18;;;;;;;38.95;20.92;;;;;;;13.07;100.00;98584.34;5058025;28;20038;-80
2021/09/01 04:41:49;;;;;;;37.03;21.00;;;;;;;13.23;100.00;98588.31;5057884;28;20041;-81
2021/09/01 04:44:15;;;;;;;36.90;20.15;;;;;;;13.28;100.00;98593.66;5063860;28;20048;-82
2021/09/01 04:46:42;;;;;;;38.47;20.48;;;;;;;13.39;100.00;98597.72;5035753;28;20049;-83
2021/09/01 04:49:09;;;;;;;39.22;20.90;;;;;;;13.43;100.00;98600.63;5036739;28;20087;-81
2021/09/01 04:51:35;;;;;;;37.70;19.20;;;;;;;13.51;100.00;98603.41;5038544;28;20095;-80
2021/09/01 04:54:02;;;;;;;39.70;19.98;;;;;;;13.37;100.00;98599.94;5053833;28;20045;-82
2021/09/01 04:56:29;;;;;;;35.97;19.45;;;;;;;13.42;100.00;98599.03;5037824;28;20068;-80
2021/09/01 04:58:55;;;;;;;42.20;18.48;;;;;;;13.31;100.00;98603.09;5039249;28;20055;-81
2021/09/01 05:01:22;;;;;;;34.67;18.35;;;;;;;13.41;100.00;98609.09;5039883;28;20334;-80
2021/09/01 05:03:49;;;;;;;29.13;16.92;;;;;;;13.40;100.00;98607.47;5054060;28;20398;-82
2021/09/01 05:06:15;;;;;;;29.10;17.25;;;;;;;13.42;100.00;98618.84;5037128;28;20045;-81
2021/09/01 05:08:42;;;;;;;30.63;16.90;;;;;;;13.45;100.00;98620.97;5038255;28;20128;-81
2021/09/01 05:11:08;;;;;;;33.35;18.95;;;;;;;13.47;100.00;98621.44;5035267;28;20071;-86
2021/09/01 05:13:36;;;;;;;32.72;18.38;;;;;;;13.56;100.00;98625.03;5053639;28;20022;-84
2021/09/01 05:16:03;;;;;;;39.75;17.40;;;;;;;13.66;100.00;98621.25;5051131;28;20101;-83
2021/09/01 05:18:31;;;;;;;30.90;17.20;;;;;;;13.84;100.00;98622.16;5053059;28;20057;-84
2021/09/01 05:20:59;;;;;;;32.28;17.17;;;;;;;13.71;100.00;98621.94;5062923;22;20032;-79
2021/09/01 05:23:34;;;;;;;30.75;16.92;;;;;;;13.88;100.00;98620.44;5031031;28;20048;-82
2021/09/01 05:26:07;;;;;;;27.88;16.25;;;;;;;13.92;100.00;98624.13;5031182;28;20064;-79
2021/09/01 05:28:35;;;;;;;29.20;16.52;;;;;;;13.99;100.00;98622.56;5025751;28;20103;-78
2021/09/01 05:31:06;;;;;;;31.65;16.63;;;;;;;13.97;100.00;98624.00;5028593;28;20041;-79
2021/09/01 05:33:36;;;;;;;33.30;17.88;;;;;;;13.94;100.00;98628.16;5033665;28;20651;-79
2021/09/01 05:36:05;;;;;;;30.63;17.88;;;;;;;14.08;100.00;98630.78;5029734;28;20488;-81
2021/09/01 05:38:33;;;;;;;32.38;17.48;;;;;;;14.10;100.00;98628.56;5030599;28;20048;-78
2021/09/01 05:41:01;;;;;;;32.58;17.17;;;;;;;14.05;100.00;98628.69;5030049;28;20042;-80
2021/09/01 05:43:32;;;;;;;38.22;18.40;;;;;;;14.14;100.00;98621.38;5013676;28;20045;-79
2021/09/01 05:46:01;;;;;;;35.67;19.20;;;;;;;14.17;100.00;98640.59;5031387;28;20486;-77
2021/09/01 05:48:29;;;;;;;51.42;21.23;;;;;;;14.11;100.00;98630.16;5027371;28;20084;-76
2021/09/01 05:50:56;;;;;;;45.20;19.95;;;;;;;14.14;100.00;98624.88;5033872;28;20049;-78
2021/09/01 05:53:23;;;;;;;60.28;23.45;;;;;;;14.14;100.00;98632.28;5031511;28;20042;-79
2021/09/01 05:55:52;;;;;;;58.78;24.05;;;;;;;14.26;100.00;98632.47;5031782;28;20690;-79
2021/09/01 05:58:20;;;;;;;71.13;26.70;;;;;;;14.29;100.00;98631.84;5013477;28;20045;-80
2021/09/01 06:00:55;;;;;;;70.00;27.30;;;;;;;14.40;100.00;98635.91;5013325;28;20071;-79
2021/09/01 06:03:28;;;;;;;69.88;25.52;;;;;;;14.63;100.00;98642.91;5029534;28;20411;-81
2021/09/01 06:05:57;;;;;;;77.18;26.77;;;;;;;14.52;100.00;98644.31;5031496;28;20054;-77
2021/09/01 06:08:25;;;;;;;72.32;27.02;;;;;;;14.60;100.00;98640.00;5013742;28;20037;-75
2021/09/01 06:10:57;;;;;;;74.22;26.90;;;;;;;14.40;100.00;98644.09;5025923;28;20041;-79
2021/09/01 06:13:23;;;;;;;79.18;27.73;;;;;;;14.56;100.00;98644.47;5031610;28;20136;-78
2021/09/01 06:15:50;;;;;;;80.03;29.15;;;;;;;14.65;100.00;98648.03;5032026;28;20049;-79
2021/09/01 06:18:17;;;;;;;83.82;29.67;;;;;;;14.53;100.00;98643.16;5014351;28;20045;-79
2021/09/01 06:20:44;;;;;;;85.72;31.35;;;;;;;14.67;100.00;98652.06;5013311;28;20041;-78
2021/09/01 06:23:10;;;;;;;80.68;30.77;;;;;;;14.58;100.00;98651.19;5014178;28;20057;-81
2021/09/01 06:25:37;;;;;;;88.95;31.35;;;;;;;14.41;100.00;98656.59;5032834;28;20053;-76
2021/09/01 06:28:08;;;;;;;93.63;33.33;;;;;;;14.40;100.00;98654.22;5032472;28;20064;-79
2021/09/01 06:30:35;;;;;;;88.68;33.45;;;;;;;14.42;100.00;98669.13;5014362;28;20435;-78
2021/09/01 06:33:04;;;;;;;96.15;34.65;;;;;;;14.38;100.00;98657.22;4997301;28;20061;-77
2021/09/01 06:35:30;;;;;;;98.90;35.65;;;;;;;14.31;100.00;98651.44;5030952;28;20121;-80
2021/09/01 06:37:57;;;;;;;130.48;35.50;;;;;;;14.33;100.00;98671.78;5013114;28;20100;-79
2021/09/01 06:40:23;;;;;;;91.53;35.70;;;;;;;14.48;100.00;98672.50;5029956;28;20582;-78
2021/09/01 06:42:50;;;;;;;96.95;36.90;;;;;;;14.35;100.00;98666.03;5013981;28;20054;-77
2021/09/01 06:45:16;;;;;;;104.57;37.78;;;;;;;14.30;100.00;98668.84;5014995;28;20126;-76
2021/09/01 06:47:51;;;;;;;115.60;40.35;;;;;;;14.43;100.00;98672.66;5035543;28;20046;-76
2021/09/01 06:50:19;;;;;;;109.15;39.40;;;;;;;14.54;100.00;98677.50;5015133;28;20037;-77
2021/09/01 06:52:46;;;;;;;109.38;39.78;;;;;;;14.51;100.00;98669.94;5030340;28;20037;-75
2021/09/01 06:55:14;;;;;;;99.60;40.25;;;;;;;14.67;100.00;98678.50;5046598;28;20582;-79
2021/09/01 06:57:42;;;;;;;102.65;40.38;;;;;;;14.58;100.00;98674.94;5033580;28;20037;-81
2021/09/01 07:00:11;;;;;;;95.65;38.58;;;;;;;14.69;100.00;98674.34;4999916;28;20100;-78
2021/09/01 07:02:38;;;;;;;103.25;39.70;;;;;;;14.80;100.00;98680.31;5023048;28;20060;-79
2021/09/01 07:05:06;;;;;;;91.38;38.60;;;;;;;15.00;100.00;98668.78;5017487;28;20049;-78
2021/09/01 07:07:39;;;;;;;90.60;38.95;;;;;;;14.84;100.00;98675.84;5016808;28;20046;-78
2021/09/01 07:10:06;;;;;;;94.70;38.40;;;;;;;14.81;100.00;98684.66;5031784;28;20041;-80
2021/09/01 07:12:32;;;;;;;85.18;37.50;;;;;;;14.97;100.00;98685.78;5033751;28;20107;-77
2021/09/01 07:14:59;;;;;;;90.28;40.33;;;;;;;14.87;100.00;98684.16;5031393;28;20045;-81
2021/09/01 07:17:26;;;;;;;87.28;39.92;;;;;;;15.03;100.00;98695.44;5031305;28;20499;-79
2021/09/01 07:19:53;;;;;;;87.95;39.38;;;;;;;15.04;100.00;98699.78;5031758;28;20424;-76
2021/09/01 07:22:26;;;;;;;84.50;38.38;;;;;;;15.08;100.00;98687.09;5025608;28;20080;-80
2021/09/01 07:24:53;;;;;;;81.65;38.50;;;;;;;15.22;100.00;98692.44;5025972;28;20326;-78
2021/09/01 07:27:19;;;;;;;75.03;36.92;;;;;;;15.02;100.00;98698.50;5024302;28;20060;-79
2021/09/01 07:29:51;;;;;;;76.07;37.75;;;;;;;15.15;100.00;98689.38;5040336;28;20578;-80
2021/09/01 07:32:18;;;;;;;81.22;38.15;;;;;;;15.15;100.00;98692.88;5023571;28;20115;-78
2021/09/01 07:34:44;;;;;;;70.90;37.33;;;;;;;15.25;100.00;98695.31;5041989;28;20053;-80
2021/09/01 07:37:11;;;;;;;74.07;36.15;;;;;;;15.41;100.00;98703.81;5023874;28;20128;-79
2021/09/01 07:39:37;;;;;;;83.68;37.58;;;;;;;15.22;100.00;98700.63;5040373;28;20049;-77
2021/09/01 07:42:04;;;;;;;69.78;36.42;;;;;;;15.40;100.00;98696.78;5040634;28;20049;-80
2021/09/01 07:44:31;;;;;;;74.78;37.10;;;;;;;15.29;100.00;98704.47;5038730;28;20646;-81
2021/09/01 07:46:58;;;;;;;66.40;35.03;;;;;;;15.27;100.00;98708.66;5038690;28;20057;-81
2021/09/01 07:49:24;;;;;;;69.20;36.45;;;;;;;15.43;100.00;98718.75;5042936;28;20046;-77
2021/09/01 07:51:51;;;;;;;71.82;37.85;;;;;;;15.30;100.00;98711.53;5045176;28;20384;-76
2021/09/01 07:54:17;;;;;;;65.35;36.08;;;;;;;15.42;100.00;98724.53;5039672;28;20049;-82
2021/09/01 07:56:44;;;;;;;70.40;36.00;;;;;;;15.52;100.00;98721.53;5022113;28;20049;-78
2021/09/01 07:59:10;;;;;;;73.53;37.70;;;;;;;15.49;100.00;98724.91;5041874;28;20053;-77
2021/09/01 08:01:37;;;;;;;65.07;35.97;;;;;;;15.49;100.00;98728.44;5022671;28;20050;-78
2021/09/01 08:04:05;;;;;;;65.90;35.13;;;;;;;15.67;100.00;98739.34;5027621;28;20045;-74
2021/09/01 08:06:31;;;;;;;59.55;33.17;;;;;;;15.65;100.00;98739.69;5025722;28;20476;-76
2021/09/01 08:08:58;;;;;;;65.97;35.80;;;;;;;15.78;100.00;98732.47;5038746;28;20063;-83
2021/09/01 08:11:24;;;;;;;62.35;34.30;;;;;;;15.96;100.00;98737.59;5030126;28;20073;-78
2021/09/01 08:13:51;;;;;;;61.45;33.72;;;;;;;15.90;100.00;98752.53;5034809;28;20053;-77
2021/09/01 08:16:18;;;;;;;63.40;33.17;;;;;;;15.93;100.00;98734.69;5016442;28;20462;-79
2021/09/01 08:18:45;;;;;;;58.25;32.08;;;;;;;15.82;100.00;98744.34;5036957;28;20056;-78
2021/09/01 08:21:11;;;;;;;55.15;32.45;;;;;;;16.05;100.00;98730.19;5029040;28;20563;-78
2021/09/01 08:23:38;;;;;;;59.80;31.30;;;;;;;16.17;100.00;98732.25;5029102;28;20045;-80
2021/09/01 08:26:04;;;;;;;59.25;31.58;;;;;;;15.96;100.00;98734.84;5028957;28;20099;-78
2021/09/01 08:28:31;;;;;;;58.45;31.23;;;;;;;16.23;100.00;98743.81;5011586;28;20061;-79
2021/09/01 08:30:57;;;;;;;52.42;30.63;;;;;;;16.27;100.00;98750.22;5011873;28;20049;-78
2021/09/01 08:33:24;;;;;;;54.00;29.55;;;;;;;16.27;100.00;98752.97;5029568;28;20068;-78
2021/09/01 08:35:51;;;;;;;47.75;28.85;;;;;;;16.39;100.00;98750.41;5030331;28;20060;-77
2021/09/01 08:38:17;;;;;;;50.60;28.77;;;;;;;16.55;100.00;98756.94;5031716;28;20068;-77
2021/09/01 08:40:47;;;;;;;50.25;28.05;;;;;;;16.81;100.00;98744.00;5029749;28;20124;-77
2021/09/01 08:43:18;;;;;;;51.97;27.88;;;;;;;16.90;100.00;98742.03;5030649;28;20071;-77
2021/09/01 08:45:48;;;;;;;47.22;27.33;;;;;;;16.83;100.00;98756.22;5012248;28;20041;-79
2021/09/01 08:48:16;;;;;;;48.35;26.83;;;;;;;16.75;100.00;98757.03;5027611;28;20045;-80
2021/09/01 08:50:43;;;;;;;46.42;28.15;;;;;;;16.83;100.00;98762.81;5029729;28;20053;-78
2021/09/01 08:53:10;;;;;;;48.45;28.92;;;;;;;16.88;100.00;98757.94;5012699;28;20535;-77
2021/09/01 08:55:36;;;;;;;41.20;26.27;;;;;;;17.12;100.00;98760.91;5012155;28;20041;-79
2021/09/01 08:58:03;;;;;;;40.90;26.83;;;;;;;17.05;100.00;98757.88;5014077;28;20462;-78
2021/09/01 09:00:30;;;;;;;45.72;26.60;;;;;;;17.51;100.00;98756.97;5030657;28;20415;-75
2021/09/01 09:03:00;;;;;;;39.83;25.92;;;;;;;17.45;100.00;98753.63;5010763;28;20052;-75
2021/09/01 09:05:33;;;;;;;43.00;24.88;;;;;;;17.29;100.00;98755.31;5009832;28;20069;-75
2021/09/01 09:08:00;;;;;;;40.83;25.30;;;;;;;17.09;100.00;98758.00;5030374;28;20045;-76
2021/09/01 09:10:37;;;;;;;39.05;25.42;;;;;;;17.11;100.00;98764.75;5012518;28;20072;-75
2021/09/01 09:13:07;;;;;;;39.78;23.83;;;;;;;17.46;100.00;98762.63;5027357;28;20313;-77
2021/09/01 09:15:34;;;;;;;36.13;23.42;;;;;;;17.82;100.00;98762.91;5027501;28;20045;-78
2021/09/01 09:18:02;;;;;;;43.53;23.35;;;;;;;17.80;100.00;98761.63;5008422;28;20450;-75
2021/09/01 09:20:34;;;;;;;42.83;22.38;;;;;;;18.15;100.00;98754.69;5009806;28;20053;-76
2021/09/01 09:23:04;;;;;;;35.33;22.67;;;;;;;18.12;100.00;98755.38;5007603;28;20374;-76
2021/09/01 09:25:32;;;;;;;35.35;22.80;;;;;;;17.90;100.00;98766.69;5027014;28;20056;-76
2021/09/01 09:28:05;;;;;;;29.08;20.50;;;;;;;17.63;100.00;98759.81;5027626;28;20053;-76
2021/09/01 09:30:39;;;;;;;32.67;22.00;;;;;;;17.99;100.00;98768.22;5027710;28;20424;-76
2021/09/01 09:33:09;;;;;;;40.75;22.02;;;;;;;17.92;100.00;98772.63;5028291;28;20050;-75
2021/09/01 09:35:47;;;;;;;31.42;21.30;;;;;;;17.60;100.00;98771.41;5029635;28;20512;-76
2021/09/01 09:38:16;;;;;;;30.73;20.88;;;;;;;17.64;100.00;98766.09;5027685;28;20068;-77
2021/09/01 09:40:42;;;;;;;33.53;23.45;;;;;;;17.46;100.00;98762.63;5027097;28;20459;-79
2021/09/01 09:43:17;;;;;;;41.40;25.23;;;;;;;17.28;100.00;98764.69;5012498;28;20045;-76
2021/09/01 09:45:45;;;;;;;41.17;25.80;;;;;;;17.23;100.00;98769.53;5011084;28;20041;-78
2021/09/01 09:48:13;;;;;;;43.58;26.27;;;;;;;17.13;100.00;98758.97;5027012;28;20052;-79
2021/09/01 09:50:49;;;;;;;40.38;26.30;;;;;;;17.20;100.00;98771.00;5026358;28;20119;-74
2021/09/01 09:53:43;;;;;;;42.92;26.52;;;;;;;17.40;100.00;98772.16;5024569;28;20049;-76
2021/09/01 09:56:24;;;;;;;40.15;26.77;;;;;;;17.57;100.00;98777.59;5025223;28;20053;-77
2021/09/01 09:58:53;;;;;;;40.67;27.38;;;;;;;17.67;100.00;98776.38;5025129;28;20092;-75
2021/09/01 10:01:22;;;;;;;35.40;24.50;;;;;;;17.56;100.00;98781.44;5025524;28;20053;-75
2021/09/01 10:03:52;;;;;;;39.00;23.00;;;;;;;17.71;100.00;98780.03;5016620;28;20053;-76
2021/09/01 10:06:19;;;;;;;32.90;22.65;;;;;;;17.86;100.00;98782.22;5020768;28;20121;-80
2021/09/01 10:08:49;;;;;;;33.55;21.80;;;;;;;17.70;100.00;98787.50;5029668;28;20056;-76
2021/09/01 10:11:17;;;;;;;34.88;22.33;;;;;;;17.70;100.00;98783.94;5011180;28;20876;-76
2021/09/01 10:13:46;;;;;;;34.53;22.80;;;;;;;17.92;100.00;98778.94;5026002;28;20057;-77
2021/09/01 10:16:19;;;;;;;34.08;21.65;;;;;;;18.21;100.00;98778.03;5015132;28;20065;-75
2021/09/01 10:18:56;;;;;;;37.58;23.08;;;;;;;17.99;100.00;98781.13;5028228;28;20049;-77
2021/09/01 10:21:29;;;;;;;35.58;23.92;;;;;;;18.37;100.00;98787.25;5033202;28;20050;-77
2021/09/01 10:23:56;;;;;;;32.33;22.58;;;;;;;18.62;100.00;98777.16;5013263;28;20045;-79
2021/09/01 10:26:27;;;;;;;36.22;22.42;;;;;;;18.15;100.00;98782.09;5056607;28;20089;-75
2021/09/01 10:28:57;;;;;;;35.38;22.23;;;;;;;18.02;100.00;98784.00;5021159;28;20049;-76
2021/09/01 10:31:27;;;;;;;38.22;23.23;;;;;;;18.16;100.00;98783.72;5029506;28;20041;-79
2021/09/01 10:34:00;;;;;;;33.08;22.17;;;;;;;18.48;100.00;98790.38;5027690;28;20635;-78
2021/09/01 10:36:27;;;;;;;32.25;20.10;;;;;;;18.85;100.00;98794.00;5033685;28;20049;-76
2021/09/01 10:39:17;;;;;;;35.65;20.63;;;;;;;18.86;100.00;98787.38;5029561;28;20111;-78
2021/09/01 10:41:44;;;;;;;29.48;19.08;;;;;;;18.89;100.00;98789.44;5005916;28;20049;-76
2021/09/01 10:44:11;;;;;;;27.25;18.42;;;;;;;18.85;100.00;98788.50;5028391;28;20045;-77
2021/09/01 10:46:55;;;;;;;30.50;17.17;;;;;;;18.66;100.00;98780.81;5009397;28;20145;-76
2021/09/01 10:49:25;;;;;;;31.73;17.83;;;;;;;18.42;100.00;98783.47;5032349;28;20136;-79
2021/09/01 10:52:03;;;;;;;25.95;18.13;;;;;;;18.81;100.00;98776.63;5033488;28;20050;-75
2021/09/01 10:54:40;;;;;;;26.98;17.45;;;;;;;19.02;100.00;98778.13;5031919;28;20527;-78
2021/09/01 10:57:22;;;;;;;26.20;15.57;;;;;;;21.76;100.00;98764.13;4989322;28;20053;-78
2021/09/01 10:59:50;;;;;;;18.58;13.60;;;;;;;23.30;100.00;98757.25;5030940;28;20159;-76
2021/09/01 11:02:20;;;;;;;19.55;13.43;;;;;;;22.12;100.00;98758.25;5030137;28;20474;-79
2021/09/01 11:04:52;;;;;;;18.45;12.98;;;;;;;21.34;100.00;98754.94;5029248;28;20053;-77
2021/09/01 11:07:26;;;;;;;22.98;11.98;;;;;;;23.81;100.00;98757.63;5012946;28;20041;-76
2021/09/01 11:10:04;;;;;;;14.88;10.23;;;;;;;26.29;91.31;98747.59;5030682;28;20332;-77
2021/09/01 11:12:41;;;;;;;16.30;10.82;;;;;;;24.08;100.00;98756.44;5026106;28;20045;-76
2021/09/01 11:15:09;;;;;;;23.20;11.90;;;;;;;21.38;100.00;98764.06;5035056;28;20046;-76
2021/09/01 11:17:35;;;;;;;18.25;12.00;;;;;;;20.39;100.00;98751.31;5025334;28;20125;-77